createdAt,value
2022-07-25T00:01:38.771Z,101532.00
2022-07-25T00:06:47.890Z,101536.66
2022-07-25T00:11:50.686Z,101525.28
2022-07-25T00:16:53.432Z,101527.16
2022-07-25T00:27:19.193Z,101514.38
2022-07-25T00:32:22.206Z,101512.84
2022-07-25T00:37:25.008Z,101507.78
2022-07-25T00:42:33.701Z,101500.53
2022-07-25T00:47:37.623Z,101506.59
2022-07-25T00:52:40.649Z,101503.78
2022-07-25T01:03:02.107Z,101489.94
2022-07-25T01:08:05.471Z,101485.34
2022-07-25T01:13:08.436Z,101488.09
2022-07-25T01:18:16.507Z,101480.28
2022-07-25T01:23:24.561Z,101481.66
2022-07-25T01:28:27.475Z,101475.81
2022-07-25T01:33:30.282Z,101471.88
2022-07-25T01:38:38.351Z,101463.25
2022-07-25T01:43:41.700Z,101464.88
2022-07-25T01:48:44.679Z,101463.72
2022-07-25T01:53:52.748Z,101468.94
2022-07-25T01:58:55.957Z,101459.22
2022-07-25T02:03:58.720Z,101462.53
2022-07-25T02:09:06.786Z,101459.16
2022-07-25T02:14:09.677Z,101458.00
2022-07-25T02:19:12.811Z,101461.56
2022-07-25T02:24:20.856Z,101450.69
2022-07-25T02:29:23.596Z,101442.06
2022-07-25T02:34:26.444Z,101434.56
2022-07-25T02:39:34.488Z,101433.66
2022-07-25T02:44:37.231Z,101427.81
2022-07-25T02:49:39.993Z,101423.28
2022-07-25T02:54:48.040Z,101430.41
2022-07-25T02:59:50.792Z,101427.56
2022-07-25T03:04:53.548Z,101430.25
2022-07-25T03:10:01.625Z,101429.69
2022-07-25T03:15:06.134Z,101430.19
2022-07-25T03:20:09.932Z,101433.47
2022-07-25T03:25:21.458Z,101429.28
2022-07-25T03:30:24.821Z,101424.03
2022-07-25T03:40:46.194Z,101423.75
2022-07-25T03:45:48.938Z,101418.09
2022-07-25T03:50:51.753Z,101413.09
2022-07-25T03:55:59.826Z,101394.59
2022-07-25T04:01:02.638Z,101386.88
2022-07-25T04:06:07.400Z,101390.13
2022-07-25T04:11:15.443Z,101392.38
2022-07-25T04:16:22.373Z,101380.53
2022-07-25T04:21:26.268Z,101374.81
2022-07-25T04:26:34.353Z,101364.97
2022-07-25T04:31:37.162Z,101359.03
2022-07-25T04:36:39.979Z,101347.53
2022-07-25T04:41:48.075Z,101348.47
2022-07-25T04:46:50.894Z,101338.09
2022-07-25T04:51:53.661Z,101322.97
2022-07-25T05:02:15.108Z,101301.19
2022-07-25T05:07:17.860Z,101299.06
2022-07-25T05:17:39.536Z,101282.16
2022-07-25T05:22:43.155Z,101285.00
2022-07-25T05:27:49.643Z,101284.25
2022-07-25T05:32:57.704Z,101281.56
2022-07-25T05:38:00.473Z,101276.63
2022-07-25T05:43:23.599Z,101265.31
2022-07-25T05:53:50.585Z,101243.59
2022-07-25T05:58:53.428Z,101234.13
2022-07-25T06:03:56.228Z,101225.19
2022-07-25T06:09:07.981Z,101208.66
2022-07-25T06:19:29.951Z,101203.56
2022-07-25T06:24:32.770Z,101196.69
2022-07-25T06:29:35.857Z,101191.75
2022-07-25T06:34:43.870Z,101179.44
2022-07-25T06:45:05.544Z,101165.50
2022-07-25T06:50:11.324Z,101165.97
2022-07-25T06:55:16.005Z,101161.03
2022-07-25T07:00:24.572Z,101159.37
2022-07-25T07:05:29.207Z,101155.41
2022-07-25T07:10:32.397Z,101148.38
2022-07-25T07:15:41.113Z,101135.09
2022-07-25T07:20:44.030Z,101135.41
2022-07-25T07:25:47.683Z,101119.84
2022-07-25T07:36:18.921Z,101095.03
2022-07-25T07:41:21.937Z,101097.78
2022-07-25T07:46:30.106Z,101093.22
2022-07-25T07:51:32.913Z,101075.41
2022-07-25T08:01:54.345Z,101064.22
2022-07-25T08:06:57.160Z,101059.66
2022-07-25T08:11:59.902Z,101059.19
2022-07-25T08:17:07.929Z,101059.69
2022-07-25T08:22:15.545Z,101049.88
2022-07-25T08:27:18.282Z,101044.50
2022-07-25T08:32:26.406Z,101045.53
2022-07-25T08:37:29.354Z,101036.69
2022-07-25T08:42:34.278Z,101031.62
2022-07-25T08:47:42.340Z,101027.06
2022-07-25T08:52:46.950Z,101022.31
2022-07-25T08:57:52.225Z,101016.94
2022-07-25T09:03:02.226Z,101009.06
2022-07-25T09:08:08.962Z,100998.38
2022-07-25T09:18:32.794Z,101001.78
2022-07-25T09:23:37.008Z,100986.75
2022-07-25T09:28:41.669Z,100982.06
2022-07-25T09:33:52.989Z,100974.66
2022-07-25T09:38:56.856Z,100962.09
2022-07-25T09:43:59.686Z,100944.34
2022-07-25T09:49:08.959Z,100937.88
2022-07-25T09:54:11.738Z,100926.25
2022-07-25T09:59:14.491Z,100915.75
2022-07-25T10:04:25.574Z,100910.41
2022-07-25T10:09:28.859Z,100905.84
2022-07-25T10:14:31.676Z,100895.63
2022-07-25T10:20:04.225Z,100889.66
2022-07-25T10:25:15.914Z,100888.34
2022-07-25T10:30:22.827Z,100878.03
2022-07-25T10:40:50.746Z,100852.81
2022-07-25T10:45:57.189Z,100844.06
2022-07-25T10:51:02.304Z,100831.28
2022-07-25T10:56:14.715Z,100823.59
2022-07-25T11:06:38.282Z,100810.81
2022-07-25T11:11:42.706Z,100807.19
2022-07-25T11:16:46.881Z,100796.66
2022-07-25T11:21:57.739Z,100797.84
2022-07-25T11:27:00.638Z,100780.34
2022-07-25T11:32:05.856Z,100773.47
2022-07-25T11:37:15.166Z,100754.84
2022-07-25T11:42:20.401Z,100752.41
2022-07-25T11:47:25.650Z,100747.53
2022-07-25T11:52:36.148Z,100749.56
2022-07-25T11:57:41.369Z,100737.41
2022-07-25T12:02:44.835Z,100730.44
2022-07-25T12:07:55.765Z,100737.41
2022-07-25T12:12:58.990Z,100717.06
2022-07-25T12:18:01.723Z,100719.50
2022-07-25T12:23:11.545Z,100698.34
2022-07-25T12:28:15.088Z,100697.06
2022-07-25T12:33:17.821Z,100676.28
2022-07-25T12:38:25.949Z,100673.84
2022-07-25T12:43:28.707Z,100670.53
2022-07-25T12:48:31.550Z,100646.13
2022-07-25T12:53:42.408Z,100642.47
2022-07-25T12:58:45.546Z,100643.69
2022-07-25T13:03:48.521Z,100647.41
2022-07-25T13:08:56.646Z,100628.25
2022-07-25T13:19:18.778Z,100637.22
2022-07-25T13:24:21.521Z,100631.59
2022-07-25T13:29:24.229Z,100627.50
2022-07-25T13:34:32.872Z,100615.72
2022-07-25T13:44:54.221Z,100597.84
2022-07-25T13:49:57.044Z,100590.91
2022-07-25T13:54:59.809Z,100586.06
2022-07-25T14:00:08.997Z,100585.63
2022-07-25T14:05:12.053Z,100580.34
2022-07-25T14:10:14.860Z,100590.50
2022-07-25T14:15:22.983Z,100591.75
2022-07-25T14:20:25.877Z,100573.03
2022-07-25T14:25:28.651Z,100565.31
2022-07-25T14:30:36.829Z,100573.03
2022-07-25T14:35:40.120Z,100558.38
2022-07-25T14:40:42.990Z,100549.84
2022-07-25T14:45:51.012Z,100549.03
2022-07-25T14:50:53.760Z,100545.75
2022-07-25T14:55:56.519Z,100539.63
2022-07-25T15:01:05.034Z,100526.22
2022-07-25T15:06:08.429Z,100518.41
2022-07-25T15:11:11.434Z,100503.34
2022-07-25T15:21:37.834Z,100474.91
2022-07-25T15:26:40.767Z,100465.09
2022-07-25T15:31:43.643Z,100450.47
2022-07-25T15:36:51.733Z,100457.06
2022-07-25T15:41:54.487Z,100432.72
2022-07-25T15:46:57.373Z,100414.03
2022-07-25T15:52:06.018Z,100401.00
2022-07-25T15:57:08.748Z,100392.06
2022-07-25T16:02:11.457Z,100378.59
2022-07-25T16:07:19.478Z,100363.13
2022-07-25T16:12:25.279Z,100380.47
2022-07-25T16:17:31.924Z,100474.81
2022-07-25T16:22:39.969Z,100582.63
2022-07-25T16:27:42.726Z,100813.81
2022-07-25T16:32:45.504Z,100724.03
2022-07-25T16:37:53.579Z,100622.44
2022-07-25T16:42:56.321Z,100626.19
2022-07-25T16:47:59.089Z,100553.69
2022-07-25T16:53:07.280Z,100544.25
2022-07-25T16:58:10.014Z,100525.19
2022-07-25T17:03:13.871Z,100526.91
2022-07-25T17:13:39.338Z,100497.75
2022-07-25T17:18:42.120Z,100503.34
2022-07-25T17:29:07.374Z,100490.38
2022-07-25T17:34:10.336Z,100494.75
2022-07-25T17:39:13.099Z,100498.03
2022-07-25T17:44:21.162Z,100511.53
2022-07-25T17:49:23.988Z,100538.94
2022-07-25T17:54:26.799Z,100528.91
2022-07-25T17:59:35.475Z,100539.38
2022-07-25T18:04:38.343Z,100538.06
2022-07-25T18:09:41.324Z,100527.38
2022-07-25T18:14:49.528Z,100518.00
2022-07-25T18:19:53.201Z,100511.72
2022-07-25T18:24:55.969Z,100567.81
2022-07-25T18:30:04.508Z,100605.47
2022-07-25T18:35:08.301Z,100609.63
2022-07-25T18:40:12.229Z,100613.91
2022-07-25T18:45:20.986Z,100648.25
2022-07-25T18:50:24.630Z,100648.06
2022-07-25T18:55:27.497Z,100655.13
2022-07-25T19:00:35.508Z,100632.34
2022-07-25T19:10:57.867Z,100671.22
2022-07-25T19:16:01.816Z,100714.53
2022-07-25T19:21:04.899Z,100685.59
2022-07-25T19:26:13.819Z,100710.09
2022-07-25T19:31:17.053Z,100770.94
2022-07-25T19:36:19.879Z,100775.84
2022-07-25T19:41:28.241Z,100813.78
2022-07-25T19:51:49.627Z,100877.41
2022-07-25T19:56:52.376Z,100830.88
2022-07-25T20:01:55.216Z,100816.56
2022-07-25T20:07:03.283Z,100825.59
2022-07-25T20:12:06.979Z,100818.28
2022-07-25T20:17:09.878Z,100794.00
2022-07-25T20:22:17.952Z,100809.63
2022-07-25T20:32:39.277Z,100834.97
2022-07-25T20:37:42.053Z,100838.69
2022-07-25T20:42:44.795Z,100842.94
2022-07-25T20:47:52.846Z,100836.06
2022-07-25T21:08:40.994Z,100845.34
2022-07-25T21:13:43.784Z,100839.12
2022-07-25T21:18:46.594Z,100869.16
2022-07-25T21:23:54.918Z,100857.84
2022-07-25T21:28:57.683Z,100846.25
2022-07-25T21:34:01.111Z,100842.69
2022-07-25T21:39:09.732Z,100855.22
2022-07-25T21:44:13.276Z,100861.91
2022-07-25T21:49:16.067Z,100867.47
2022-07-25T21:54:24.596Z,100863.06
2022-07-25T21:59:27.325Z,100890.25
2022-07-25T22:04:30.118Z,100868.06
2022-07-25T22:09:38.214Z,100861.16
2022-07-25T22:14:40.915Z,100866.16
2022-07-25T22:19:43.709Z,100843.16
2022-07-25T22:24:51.845Z,100857.84
2022-07-25T22:29:54.566Z,100878.63
2022-07-25T22:34:57.329Z,100888.31
2022-07-25T22:45:24.407Z,100888.06
2022-07-25T22:50:27.219Z,100894.41
2022-07-25T23:00:48.581Z,100861.50
2022-07-25T23:05:51.326Z,100845.72
2022-07-25T23:10:58.154Z,100832.19
2022-07-25T23:16:10.461Z,100843.50
2022-07-25T23:21:13.478Z,100833.56
2022-07-25T23:26:16.387Z,100838.53
2022-07-25T23:31:24.951Z,100844.91
2022-07-25T23:36:27.753Z,100843.75
2022-07-25T23:41:30.537Z,100850.66
2022-07-25T23:46:39.134Z,100868.09
2022-07-25T23:51:41.993Z,100861.47
2022-07-25T23:56:44.952Z,100872.50
